Time;durP1;ratioP1;P1;durP2;ratioP2;P2;SDS_P1;SDS_P2;PMS_P1;PMS_P2;Temp;Humidity;BMP_temperature;BMP_pressure;BME280_temperature;BME280_humidity;BME280_pressure;Samples;Min_cycle;Max_cycle;Signal;HPM_P1;HPM_P2
2023/04/13 00:00:29;;;;;;;1.13;0.93;;;6.50;99.90;;;;;;5075876;28;20024;-63
2023/04/13 00:02:55;;;;;;;4.72;1.13;;;6.60;99.90;;;;;;5075667;28;20703;-64
2023/04/13 00:05:25;;;;;;;8.68;1.02;;;6.60;99.90;;;;;;5075866;28;20315;-64
2023/04/13 00:07:51;;;;;;;1.63;0.80;;;6.60;99.90;;;;;;5074281;28;20316;-64
2023/04/13 00:10:17;;;;;;;2.37;1.37;;;6.50;99.90;;;;;;5075665;28;20035;-63
2023/04/13 00:12:46;;;;;;;;;;;6.50;99.90;;;;;;5075925;28;20032;-78
2023/04/13 00:15:16;;;;;;;1.85;1.00;;;6.50;99.90;;;;;;5075470;28;19913;-64
2023/04/13 00:17:42;;;;;;;0.80;0.70;;;6.50;99.90;;;;;;5074030;28;20031;-65
2023/04/13 00:20:12;;;;;;;1.50;1.00;;;6.60;99.90;;;;;;5075367;28;20438;-64
2023/04/13 00:22:39;;;;;;;1.20;0.73;;;6.50;99.90;;;;;;5075532;28;20107;-63
2023/04/13 00:25:05;;;;;;;2.15;1.23;;;6.60;99.90;;;;;;5074928;28;20421;-65
2023/04/13 00:27:31;;;;;;;3.28;0.90;;;6.60;99.90;;;;;;5075180;28;20035;-64
2023/04/13 00:29:57;;;;;;;3.90;1.37;;;6.60;99.90;;;;;;5074865;28;20028;-64
2023/04/13 00:32:24;;;;;;;1.70;1.07;;;6.60;99.90;;;;;;5075389;28;20040;-64
2023/04/13 00:34:50;;;;;;;1.58;1.17;;;6.60;99.90;;;;;;5075064;28;20028;-64
2023/04/13 00:37:17;;;;;;;2.88;1.30;;;6.60;99.90;;;;;;5074377;28;20020;-78
2023/04/13 00:39:45;;;;;;;1.77;0.98;;;6.60;99.90;;;;;;5075126;28;20029;-64
2023/04/13 00:42:12;;;;;;;2.92;1.58;;;6.60;99.90;;;;;;5069408;28;20036;-65
2023/04/13 00:44:38;;;;;;;1.10;0.90;;;6.60;99.90;;;;;;5075324;28;20029;-64
2023/04/13 00:47:05;;;;;;;6.75;0.93;;;6.60;99.90;;;;;;5074829;28;20036;-65
2023/04/13 00:49:34;;;;;;;;;;;6.50;99.90;;;;;;5075515;28;20398;-64
2023/04/13 00:52:02;;;;;;;2.13;1.30;;;6.60;99.90;;;;;;5075284;28;19909;-65
2023/04/13 00:54:28;;;;;;;4.03;0.88;;;6.60;99.90;;;;;;5074629;28;20020;-65
2023/04/13 00:56:58;;;;;;;2.30;1.00;;;6.50;99.90;;;;;;5074096;28;20032;-64
2023/04/13 00:59:26;;;;;;;3.58;1.20;;;6.50;99.90;;;;;;5074485;28;20427;-65
2023/04/13 01:01:55;;;;;;;1.48;1.00;;;6.50;99.90;;;;;;5075248;28;20021;-65
2023/04/13 01:04:26;;;;;;;2.30;1.10;;;6.40;99.90;;;;;;5074322;28;20434;-64
2023/04/13 01:07:22;;;;;;;1.40;1.30;;;6.40;99.90;;;;;;5074924;28;20021;-64
2023/04/13 01:09:58;;;;;;;0.90;0.90;;;6.40;99.90;;;;;;5074501;28;20048;-65
2023/04/13 01:12:38;;;;;;;1.30;1.20;;;6.40;99.90;;;;;;5073605;28;20086;-65
2023/04/13 01:15:13;;;;;;;1.45;0.90;;;6.40;99.90;;;;;;5077210;28;20319;-64
2023/04/13 01:17:43;;;;;;;2.80;0.90;;;6.40;99.90;;;;;;5074843;28;20411;-64
2023/04/13 01:20:15;;;;;;;2.33;1.00;;;6.40;99.90;;;;;;5061196;28;20024;-64
2023/04/13 01:22:54;;;;;;;1.33;0.90;;;6.40;99.90;;;;;;5075083;28;20036;-65
2023/04/13 01:25:38;;;;;;;1.38;1.00;;;6.40;99.90;;;;;;5062216;28;20054;-79
2023/04/13 01:28:18;;;;;;;2.08;0.93;;;6.40;99.90;;;;;;5073983;28;20483;-65
2023/04/13 01:30:48;;;;;;;1.33;1.10;;;6.40;99.90;;;;;;5074592;28;20028;-65
2023/04/13 01:33:15;;;;;;;0.90;0.90;;;6.40;99.90;;;;;;5074244;28;20423;-64
2023/04/13 01:35:41;;;;;;;2.75;0.70;;;6.40;99.90;;;;;;5074262;28;20020;-64
2023/04/13 01:38:07;;;;;;;1.43;0.90;;;6.40;99.90;;;;;;5074196;28;20060;-80
2023/04/13 01:40:40;;;;;;;3.63;0.80;;;6.40;99.90;;;;;;5074529;28;20261;-64
2023/04/13 01:43:07;;;;;;;1.00;0.70;;;6.40;99.90;;;;;;5074582;28;20074;-65
2023/04/13 01:45:54;;;;;;;1.23;0.85;;;6.40;99.90;;;;;;5072889;28;20077;-66
2023/04/13 01:48:32;;;;;;;0.70;0.70;;;6.40;99.90;;;;;;5074542;28;20028;-65
2023/04/13 01:51:06;;;;;;;1.42;0.80;;;6.40;99.90;;;;;;5073882;28;20039;-79
2023/04/13 01:54:00;;;;;;;1.10;0.70;;;6.40;99.90;;;;;;5074794;28;20288;-64
2023/04/13 01:56:27;;;;;;;3.20;1.00;;;6.40;99.90;;;;;;5053550;28;20033;-64
2023/04/13 01:58:56;;;;;;;;;;;6.40;99.90;;;;;;5074937;28;20021;-64
2023/04/13 02:01:25;;;;;;;0.70;0.60;;;6.40;99.90;;;;;;5060283;28;20356;-65
2023/04/13 02:03:52;;;;;;;2.38;0.90;;;6.40;99.90;;;;;;5074398;28;20017;-65
2023/04/13 02:06:18;;;;;;;2.33;0.73;;;6.40;99.90;;;;;;5073835;28;20028;-65
2023/04/13 02:08:44;;;;;;;1.80;1.00;;;6.40;99.90;;;;;;5076374;28;20037;-64
2023/04/13 02:11:11;;;;;;;3.03;1.00;;;6.40;99.90;;;;;;5077450;28;20081;-64
2023/04/13 02:13:37;;;;;;;0.60;0.60;;;6.50;99.90;;;;;;5075475;28;20044;-65
2023/04/13 02:16:05;;;;;;;1.13;0.93;;;6.50;99.90;;;;;;5077720;28;20112;-64
2023/04/13 02:18:32;;;;;;;3.03;0.93;;;6.50;99.90;;;;;;5077596;28;20255;-63
2023/04/13 02:21:06;;;;;;;3.90;1.00;;;6.50;99.90;;;;;;5077418;28;20027;-64
2023/04/13 02:23:33;;;;;;;4.50;1.23;;;6.40;99.90;;;;;;5077591;28;20025;-66
2023/04/13 02:25:59;;;;;;;1.83;1.10;;;6.40;99.90;;;;;;5078001;28;20028;-64
2023/04/13 02:28:26;;;;;;;3.08;1.02;;;6.30;99.90;;;;;;5077024;28;20093;-64
2023/04/13 02:30:55;;;;;;;;;;;6.20;99.90;;;;;;5077684;28;20039;-64
2023/04/13 02:33:21;;;;;;;1.17;0.80;;;6.10;99.90;;;;;;5077254;28;19908;-64
2023/04/13 02:35:48;;;;;;;3.00;0.82;;;6.10;99.90;;;;;;5077231;28;20424;-64
2023/04/13 02:38:14;;;;;;;3.53;0.73;;;6.00;99.90;;;;;;5077083;28;20435;-64
2023/04/13 02:40:42;;;;;;;6.95;1.08;;;6.10;99.90;;;;;;5077228;28;20322;-64
2023/04/13 02:43:11;;;;;;;3.17;1.17;;;6.10;99.90;;;;;;5077399;28;20029;-65
2023/04/13 02:45:38;;;;;;;1.50;1.10;;;6.10;99.90;;;;;;5076930;28;20308;-64
2023/04/13 02:48:05;;;;;;;3.47;1.75;;;6.10;99.90;;;;;;5076934;28;20066;-64
2023/04/13 02:50:30;;;;;;;3.40;1.40;;;6.10;99.90;;;;;;5077254;28;20032;-64
2023/04/13 02:52:56;;;;;;;2.97;1.70;;;6.00;99.90;;;;;;5077200;28;20112;-64
2023/04/13 02:55:22;;;;;;;4.70;1.87;;;5.90;99.90;;;;;;5077069;28;20048;-64
2023/04/13 02:57:48;;;;;;;4.03;1.57;;;5.90;99.90;;;;;;5077034;28;20334;-64
2023/04/13 03:00:15;;;;;;;5.68;1.85;;;5.80;99.90;;;;;;5077023;28;20100;-66
2023/04/13 03:02:41;;;;;;;4.65;1.48;;;5.80;99.90;;;;;;5076637;28;20315;-64
2023/04/13 03:05:08;;;;;;;7.30;1.67;;;5.80;99.90;;;;;;5077084;28;20016;-79
2023/04/13 03:07:35;;;;;;;1.92;1.30;;;5.80;99.90;;;;;;5076529;28;20029;-64
2023/04/13 03:10:04;;;;;;;6.07;1.60;;;5.80;99.90;;;;;;5077005;28;20029;-65
2023/04/13 03:12:31;;;;;;;4.80;1.52;;;5.80;99.90;;;;;;5076033;28;20119;-64
2023/04/13 03:14:56;;;;;;;;;;;5.80;99.90;;;;;;5077480;28;20024;-64
2023/04/13 03:17:22;;;;;;;4.43;1.40;;;5.80;99.90;;;;;;5076912;28;19915;-64
2023/04/13 03:19:49;;;;;;;4.43;1.90;;;5.80;99.90;;;;;;5061866;28;20292;-64
2023/04/13 03:22:15;;;;;;;;;;;5.80;99.90;;;;;;5075592;28;20020;-64
2023/04/13 03:24:41;;;;;;;5.23;1.50;;;5.70;99.90;;;;;;5076439;28;19953;-64
2023/04/13 03:27:07;;;;;;;9.53;1.70;;;5.70;99.90;;;;;;5076591;28;20353;-64
2023/04/13 03:29:32;;;;;;;4.23;1.60;;;5.60;99.90;;;;;;5075929;28;20673;-80
2023/04/13 03:31:58;;;;;;;6.47;2.03;;;5.60;99.90;;;;;;5076519;28;20317;-64
2023/04/13 03:34:24;;;;;;;6.50;1.67;;;5.60;99.90;;;;;;5076385;28;20028;-64
2023/04/13 03:36:50;;;;;;;7.43;1.40;;;5.60;99.90;;;;;;5076135;28;20028;-64
2023/04/13 03:39:15;;;;;;;7.27;1.60;;;5.60;99.90;;;;;;5076598;28;20056;-65
2023/04/13 03:41:41;;;;;;;8.23;2.27;;;5.50;99.90;;;;;;5075818;28;20012;-65
2023/04/13 03:44:08;;;;;;;3.70;1.30;;;5.60;99.90;;;;;;5076280;28;20051;-64
2023/04/13 03:46:36;;;;;;;11.07;1.88;;;5.60;99.90;;;;;;5075702;28;20111;-65
2023/04/13 03:49:07;;;;;;;11.95;1.83;;;5.60;99.90;;;;;;5076025;28;20041;-64
2023/04/13 03:51:33;;;;;;;5.93;1.85;;;5.70;99.90;;;;;;5075632;28;20036;-64
2023/04/13 03:53:59;;;;;;;8.68;2.35;;;5.70;99.90;;;;;;5076083;28;20024;-65
2023/04/13 03:56:25;;;;;;;6.18;2.35;;;5.80;99.90;;;;;;5074636;28;20054;-65
2023/04/13 03:58:52;;;;;;;5.87;1.93;;;5.80;99.90;;;;;;5075438;28;20016;-65
2023/04/13 04:01:17;;;;;;;6.60;1.85;;;5.80;99.90;;;;;;5075818;28;20032;-65
2023/04/13 04:03:43;;;;;;;6.67;2.00;;;5.90;99.90;;;;;;5075437;28;20323;-65
2023/04/13 04:06:09;;;;;;;9.73;2.00;;;5.90;99.90;;;;;;5075884;28;20024;-65
2023/04/13 04:08:35;;;;;;;4.60;2.17;;;5.80;99.90;;;;;;5074229;28;20028;-65
2023/04/13 04:11:01;;;;;;;3.57;1.90;;;5.80;99.90;;;;;;5075555;28;20491;-66
2023/04/13 04:13:26;;;;;;;6.43;2.07;;;5.90;99.90;;;;;;5075417;28;20047;-64
2023/04/13 04:15:52;;;;;;;4.47;2.07;;;5.90;99.90;;;;;;5075443;28;20431;-64
2023/04/13 04:18:18;;;;;;;10.23;2.13;;;5.90;99.90;;;;;;5074368;28;20071;-64
2023/04/13 04:20:43;;;;;;;6.40;1.87;;;6.00;99.90;;;;;;5075194;28;20032;-69
2023/04/13 04:23:11;;;;;;;9.53;2.60;;;5.90;99.90;;;;;;5075121;28;20021;-66
2023/04/13 04:25:37;;;;;;;2.70;1.67;;;5.90;99.90;;;;;;5075362;28;20109;-68
2023/04/13 04:28:03;;;;;;;10.43;2.40;;;6.00;99.90;;;;;;5073384;28;20059;-70
2023/04/13 04:30:32;;;;;;;5.83;2.03;;;6.00;99.90;;;;;;5075444;28;20025;-77
2023/04/13 04:33:01;;;;;;;8.63;2.53;;;6.10;99.90;;;;;;5073644;28;20037;-72
2023/04/13 04:35:33;;;;;;;7.40;2.75;;;6.10;99.90;;;;;;5075509;28;20028;-74
2023/04/13 04:38:03;;;;;;;12.73;1.90;;;6.10;99.90;;;;;;5073673;28;20118;-80
2023/04/13 04:40:29;;;;;;;13.07;2.25;;;6.10;99.90;;;;;;5073962;28;20017;-79
2023/04/13 04:42:56;;;;;;;11.30;2.50;;;6.20;99.90;;;;;;5073921;28;20116;-78
2023/04/13 04:45:22;;;;;;;6.68;2.03;;;6.20;99.90;;;;;;5075101;28;20024;-71
2023/04/13 04:47:49;;;;;;;5.13;1.85;;;6.20;99.90;;;;;;5073983;28;20029;-71
2023/04/13 04:50:16;;;;;;;4.00;1.73;;;6.20;99.90;;;;;;5074591;28;20411;-71
2023/04/13 04:52:43;;;;;;;5.40;1.77;;;6.20;99.90;;;;;;5074880;28;20029;-67
2023/04/13 04:55:08;;;;;;;3.95;1.42;;;6.20;99.90;;;;;;5074934;28;20093;-66
2023/04/13 04:57:35;;;;;;;12.47;2.17;;;6.20;99.90;;;;;;5074686;28;20374;-71
2023/04/13 05:00:08;;;;;;;8.27;1.65;;;6.20;99.90;;;;;;5075041;28;20078;-74
2023/04/13 05:02:33;;;;;;;9.77;2.00;;;6.30;99.90;;;;;;5061796;28;20322;-70
2023/04/13 05:04:59;;;;;;;5.73;1.90;;;6.30;99.90;;;;;;5073747;28;20115;-72
2023/04/13 05:07:27;;;;;;;1.80;0.87;;;6.30;99.90;;;;;;5074533;28;20271;-77
2023/04/13 05:09:53;;;;;;;3.95;1.40;;;6.30;99.90;;;;;;5073793;28;20438;-78
2023/04/13 05:12:18;;;;;;;6.37;0.90;;;6.20;99.90;;;;;;5074536;28;20111;-78
2023/04/13 05:14:47;;;;;;;2.97;1.30;;;6.20;99.90;;;;;;5073863;28;20323;-79
2023/04/13 05:17:16;;;;;;;4.20;1.10;;;6.20;99.90;;;;;;5074168;28;20024;-79
2023/04/13 05:19:46;;;;;;;7.07;1.42;;;6.30;99.90;;;;;;5074762;28;20028;-72
2023/04/13 05:22:14;;;;;;;5.60;1.55;;;6.30;99.90;;;;;;5074567;28;20039;-74
2023/04/13 05:24:40;;;;;;;5.80;1.30;;;6.30;99.90;;;;;;5074817;28;20074;-76
2023/04/13 05:27:10;;;;;;;6.53;1.10;;;6.40;99.90;;;;;;5073545;28;20391;-79
2023/04/13 05:29:36;;;;;;;6.85;1.60;;;6.40;99.90;;;;;;5074099;28;20058;-78
2023/04/13 05:32:02;;;;;;;12.32;2.28;;;6.40;99.90;;;;;;5074490;28;20112;-72
2023/04/13 05:34:28;;;;;;;15.77;2.00;;;6.40;99.90;;;;;;5074622;28;20431;-78
2023/04/13 05:36:56;;;;;;;5.07;1.15;;;6.50;99.90;;;;;;5072849;28;20081;-72
2023/04/13 05:39:23;;;;;;;3.13;1.27;;;6.50;99.90;;;;;;5074638;28;20103;-78
2023/04/13 05:41:50;;;;;;;10.35;1.75;;;6.50;99.90;;;;;;5072957;28;20059;-78
2023/04/13 05:44:16;;;;;;;4.95;1.20;;;6.50;99.90;;;;;;5077364;28;20386;-76
2023/04/13 05:46:41;;;;;;;8.80;1.47;;;6.50;99.90;;;;;;5078040;28;20086;-73
2023/04/13 05:49:08;;;;;;;7.57;1.50;;;6.50;99.90;;;;;;5078281;28;20372;-73
2023/04/13 05:51:34;;;;;;;2.45;1.65;;;6.50;99.90;;;;;;5077705;28;20028;-68
2023/04/13 05:54:00;;;;;;;6.60;1.67;;;6.50;99.90;;;;;;5078568;28;20032;-72
2023/04/13 05:56:28;;;;;;;6.03;1.63;;;6.60;99.90;;;;;;5078148;28;20017;-72
2023/04/13 05:58:54;;;;;;;7.28;1.95;;;6.60;99.90;;;;;;5077666;28;20028;-72
2023/04/13 06:01:22;;;;;;;9.17;2.00;;;6.60;99.90;;;;;;5078316;28;20047;-73
2023/04/13 06:03:48;;;;;;;7.28;1.90;;;6.60;99.90;;;;;;5077815;28;20025;-75
2023/04/13 06:06:16;;;;;;;5.10;1.43;;;6.70;99.90;;;;;;5077964;28;20039;-79
2023/04/13 06:08:42;;;;;;;3.83;1.45;;;6.80;99.90;;;;;;5077273;28;20055;-76
2023/04/13 06:11:08;;;;;;;7.47;2.00;;;6.90;99.90;;;;;;5078130;28;20123;-71
2023/04/13 06:13:35;;;;;;;13.10;2.03;;;6.90;99.90;;;;;;5076676;28;20119;-75
2023/04/13 06:16:01;;;;;;;14.63;1.60;;;6.90;99.90;;;;;;5077444;28;20293;-73
2023/04/13 06:18:27;;;;;;;5.27;1.73;;;6.90;99.90;;;;;;5076697;28;20428;-78
2023/04/13 06:20:53;;;;;;;8.45;1.42;;;6.90;99.90;;;;;;5077652;28;20025;-77
2023/04/13 06:23:19;;;;;;;5.80;1.40;;;6.90;99.90;;;;;;5077449;28;20362;-77
2023/04/13 06:25:45;;;;;;;16.20;1.83;;;6.90;99.90;;;;;;5077650;28;20408;-79
2023/04/13 06:28:13;;;;;;;2.93;1.40;;;6.90;99.90;;;;;;5077088;28;20048;-76
2023/04/13 06:30:39;;;;;;;7.82;1.80;;;7.00;99.90;;;;;;5076343;28;20035;-77
2023/04/13 06:33:05;;;;;;;2.70;1.13;;;7.10;99.90;;;;;;5077144;28;20320;-72
2023/04/13 06:35:32;;;;;;;10.00;0.97;;;7.20;99.90;;;;;;5077724;28;20066;-66
2023/04/13 06:38:01;;;;;;;7.50;1.77;;;7.30;99.90;;;;;;5077295;28;20360;-77
2023/04/13 06:40:30;;;;;;;9.95;1.25;;;7.30;99.90;;;;;;5077177;28;20027;-75
2023/04/13 06:42:56;;;;;;;2.45;1.20;;;7.40;99.90;;;;;;5077557;28;20029;-73
2023/04/13 06:45:22;;;;;;;4.30;1.40;;;7.40;99.90;;;;;;5075844;28;20659;-67
2023/04/13 06:47:48;;;;;;;4.27;1.10;;;7.40;99.90;;;;;;5077291;28;20411;-68
2023/04/13 06:50:14;;;;;;;10.43;1.20;;;7.50;99.90;;;;;;5076674;28;20024;-68
2023/04/13 06:52:47;;;;;;;6.05;1.35;;;7.40;99.90;;;;;;5076115;28;20056;-76
2023/04/13 06:55:13;;;;;;;8.68;1.65;;;7.50;99.90;;;;;;5075616;28;20040;-74
2023/04/13 06:57:39;;;;;;;12.05;1.60;;;7.50;99.90;;;;;;5076892;28;20111;-69
2023/04/13 07:00:07;;;;;;;1.58;0.90;;;7.50;99.90;;;;;;5075593;28;20477;-69
2023/04/13 07:02:33;;;;;;;10.48;1.67;;;7.60;99.90;;;;;;5076912;28;20016;-80
2023/04/13 07:04:59;;;;;;;12.07;1.60;;;7.70;99.90;;;;;;5076978;28;20092;-74
2023/04/13 07:07:24;;;;;;;9.13;1.50;;;7.80;99.90;;;;;;5076385;28;20032;-73
2023/04/13 07:09:51;;;;;;;8.43;1.83;;;8.20;99.90;;;;;;5076882;28;20032;-70
2023/04/13 07:12:17;;;;;;;9.63;1.33;;;8.20;99.90;;;;;;5075678;28;20327;-71
2023/04/13 07:14:45;;;;;;;0.87;0.40;;;8.10;99.90;;;;;;5076630;28;20032;-80
2023/04/13 07:17:11;;;;;;;4.80;0.90;;;7.90;99.90;;;;;;5076473;28;20273;-81
2023/04/13 07:19:37;;;;;;;7.15;1.10;;;7.90;99.90;;;;;;5076550;28;20439;-76
2023/04/13 07:22:03;;;;;;;3.17;0.98;;;7.90;99.90;;;;;;5076413;28;20037;-67
2023/04/13 07:24:29;;;;;;;8.77;1.87;;;8.00;99.90;;;;;;5076331;28;20036;-75
2023/04/13 07:26:56;;;;;;;5.55;1.05;;;8.20;99.90;;;;;;5076536;28;20044;-72
2023/04/13 07:29:25;;;;;;;11.43;1.65;;;8.20;99.90;;;;;;5076069;28;20075;-77
2023/04/13 07:31:51;;;;;;;8.48;1.23;;;8.20;99.90;;;;;;5061458;28;20059;-74
2023/04/13 07:34:17;;;;;;;6.47;1.43;;;8.20;99.90;;;;;;5075414;28;20060;-78
2023/04/13 07:36:43;;;;;;;3.95;1.13;;;8.20;99.90;;;;;;5075860;28;20020;-78
2023/04/13 07:39:09;;;;;;;12.63;1.57;;;8.30;99.90;;;;;;5076374;28;20027;-80
2023/04/13 07:41:36;;;;;;;14.02;1.85;;;8.40;99.90;;;;;;5075772;28;20100;-78
2023/04/13 07:44:04;;;;;;;11.00;2.35;;;8.50;99.90;;;;;;5076392;28;20031;-78
2023/04/13 07:46:31;;;;;;;8.80;1.63;;;8.50;99.90;;;;;;5075822;28;20364;-66
2023/04/13 07:48:57;;;;;;;5.20;1.13;;;8.50;99.90;;;;;;5076451;28;20274;-79
2023/04/13 07:51:23;;;;;;;12.93;1.63;;;8.50;99.90;;;;;;5075827;28;20044;-67
2023/04/13 07:53:51;;;;;;;14.73;2.03;;;8.50;99.90;;;;;;5075684;28;20412;-81
2023/04/13 07:56:17;;;;;;;10.10;1.60;;;8.60;99.90;;;;;;5074751;28;20191;-79
2023/04/13 07:58:44;;;;;;;9.93;2.00;;;8.80;99.90;;;;;;5075756;28;20024;-75
2023/04/13 08:01:10;;;;;;;14.02;2.15;;;8.90;99.90;;;;;;5076065;28;20358;-68
2023/04/13 08:03:36;;;;;;;9.85;1.98;;;8.80;99.90;;;;;;5074283;28;20027;-65
2023/04/13 08:06:08;;;;;;;8.88;1.45;;;8.90;99.90;;;;;;5075580;28;20311;-66
2023/04/13 08:08:34;;;;;;;8.07;1.45;;;8.70;99.90;;;;;;5075390;28;20020;-77
2023/04/13 08:11:00;;;;;;;8.73;1.70;;;8.50;99.90;;;;;;5075894;28;20024;-71
2023/04/13 08:13:29;;;;;;;5.17;1.53;;;8.40;99.90;;;;;;5074505;28;20020;-78
2023/04/13 08:15:56;;;;;;;7.97;1.42;;;8.20;99.90;;;;;;5074954;28;20074;-70
2023/04/13 08:18:31;;;;;;;6.47;1.30;;;8.20;99.90;;;;;;5075539;28;20027;-77
2023/04/13 08:20:59;;;;;;;8.90;1.40;;;8.20;99.90;;;;;;5073617;28;20025;-71
2023/04/13 08:23:26;;;;;;;11.05;1.95;;;8.20;99.90;;;;;;5074266;28;20016;-74
2023/04/13 08:25:51;;;;;;;12.00;1.50;;;8.10;99.90;;;;;;5074274;28;20024;-78
2023/04/13 08:28:17;;;;;;;11.73;2.00;;;8.00;99.90;;;;;;5073889;28;20411;-79
2023/04/13 08:30:44;;;;;;;9.27;2.17;;;8.00;99.90;;;;;;5075219;28;20077;-66
2023/04/13 08:33:10;;;;;;;;;;;8.10;99.90;;;;;;5074238;28;20020;-73
2023/04/13 08:35:38;;;;;;;15.93;1.87;;;8.20;99.90;;;;;;5075414;28;19953;-75
2023/04/13 08:38:06;;;;;;;15.35;2.20;;;8.30;99.90;;;;;;5074843;28;20036;-75
2023/04/13 08:40:37;;;;;;;12.30;1.90;;;8.40;99.90;;;;;;5075120;28;20016;-80
2023/04/13 08:43:03;;;;;;;14.82;2.25;;;8.40;99.90;;;;;;5073881;28;20115;-76
2023/04/13 08:45:29;;;;;;;15.97;2.00;;;8.40;99.90;;;;;;5075135;28;20055;-75
2023/04/13 08:47:57;;;;;;;20.67;2.63;;;8.40;99.90;;;;;;5074036;28;20101;-79
2023/04/13 08:50:25;;;;;;;7.43;1.42;;;8.30;99.90;;;;;;5073628;28;20060;-78
2023/04/13 08:52:53;;;;;;;10.85;2.63;;;8.40;99.90;;;;;;5075096;28;20020;-77
2023/04/13 08:55:18;;;;;;;8.35;2.08;;;8.50;99.90;;;;;;5073401;28;20039;-77
2023/04/13 08:57:47;;;;;;;11.07;2.03;;;8.60;99.90;;;;;;5074935;28;20017;-76
2023/04/13 09:00:17;;;;;;;18.50;2.25;;;8.70;99.90;;;;;;5074482;28;20056;-76
2023/04/13 09:02:47;;;;;;;13.73;2.22;;;8.60;99.90;;;;;;5073831;28;20024;-72
2023/04/13 09:05:19;;;;;;;10.13;2.05;;;8.50;99.90;;;;;;5073253;28;20017;-77
2023/04/13 09:07:52;;;;;;;14.25;2.47;;;8.40;99.90;;;;;;5075250;28;20029;-74
2023/04/13 09:10:19;;;;;;;14.70;2.28;;;8.50;99.90;;;;;;5074401;28;20037;-67
2023/04/13 09:12:45;;;;;;;;;;;8.60;99.90;;;;;;5075213;28;20081;-65
2023/04/13 09:15:13;;;;;;;;;;;8.70;99.90;;;;;;5074047;28;20249;-71
2023/04/13 09:17:39;;;;;;;14.68;2.75;;;8.80;99.90;;;;;;5074300;28;20003;-64
2023/04/13 09:20:35;;;;;;;15.77;2.10;;;9.00;99.90;;;;;;5079034;28;20097;-71
2023/04/13 09:23:14;;;;;;;23.73;2.72;;;9.40;99.90;;;;;;4994856;28;20030;-69
2023/04/13 09:25:40;;;;;;;8.63;2.05;;;9.80;99.90;;;;;;4997392;28;20236;-71
2023/04/13 09:28:14;;;;;;;15.25;2.30;;;10.20;99.90;;;;;;4996903;28;20049;-70
2023/04/13 09:30:39;;;;;;;13.05;2.25;;;10.50;99.90;;;;;;4997042;28;20053;-76
2023/04/13 09:33:07;;;;;;;10.37;2.13;;;10.70;99.90;;;;;;4980743;28;20438;-75
2023/04/13 09:35:33;;;;;;;20.15;2.00;;;10.70;99.90;;;;;;4997338;28;20440;-72
2023/04/13 09:38:00;;;;;;;17.88;2.10;;;10.60;99.90;;;;;;4996929;28;20074;-70
2023/04/13 09:40:26;;;;;;;9.40;1.47;;;11.00;99.90;;;;;;4997095;28;20026;-73
2023/04/13 09:42:59;;;;;;;8.52;2.15;;;11.30;99.90;;;;;;4997150;28;20260;-75
2023/04/13 09:45:33;;;;;;;14.45;2.05;;;11.50;99.90;;;;;;4996654;28;20030;-72
2023/04/13 09:48:01;;;;;;;7.70;1.25;;;11.70;99.90;;;;;;4997195;28;20037;-70
2023/04/13 09:50:27;;;;;;;12.30;2.42;;;12.00;99.90;;;;;;4996451;28;20066;-78
2023/04/13 09:53:04;;;;;;;9.88;2.00;;;12.10;99.90;;;;;;4977321;28;20043;-71
2023/04/13 09:55:31;;;;;;;;;;;12.00;99.90;;;;;;4995974;28;20121;-72
2023/04/13 09:58:10;;;;;;;9.57;1.23;;;11.70;99.90;;;;;;4996879;28;19909;-72
2023/04/13 10:00:41;;;;;;;7.43;1.63;;;11.50;99.90;;;;;;5076688;28;20015;-66
2023/04/13 10:03:10;;;;;;;13.13;1.33;;;11.30;99.90;;;;;;5078146;28;20461;-78
2023/04/13 10:05:37;;;;;;;14.57;1.85;;;11.30;99.90;;;;;;5077722;28;20288;-75
2023/04/13 10:08:04;;;;;;;9.32;1.52;;;11.30;99.90;;;;;;5076803;28;20123;-78
2023/04/13 10:10:30;;;;;;;8.15;1.38;;;11.50;99.90;;;;;;5077658;28;20713;-73
2023/04/13 10:12:59;;;;;;;7.37;1.80;;;11.70;99.90;;;;;;5078163;28;20038;-71
2023/04/13 10:15:43;;;;;;;10.23;2.30;;;11.80;99.90;;;;;;5077588;28;20035;-68
2023/04/13 10:18:23;;;;;;;9.63;1.77;;;12.00;99.90;;;;;;5077796;28;20316;-77
2023/04/13 10:20:51;;;;;;;11.07;2.05;;;11.80;99.90;;;;;;5076221;28;20023;-70
2023/04/13 10:23:18;;;;;;;12.05;1.70;;;11.70;99.90;;;;;;5076528;28;20024;-65
2023/04/13 10:25:50;;;;;;;;;;;11.50;99.90;;;;;;5078345;28;20067;-68
2023/04/13 10:28:16;;;;;;;11.55;1.60;;;11.30;99.90;;;;;;5075998;28;19917;-75
2023/04/13 10:30:52;;;;;;;8.75;1.27;;;11.10;99.90;;;;;;5077243;28;20039;-64
2023/04/13 10:33:19;;;;;;;7.13;1.67;;;10.80;99.90;;;;;;5077521;28;20077;-64
2023/04/13 10:35:58;;;;;;;5.57;1.40;;;10.70;99.90;;;;;;5077662;28;20107;-70
2023/04/13 10:38:26;;;;;;;13.43;1.45;;;10.80;99.90;;;;;;5077191;28;20039;-76
2023/04/13 10:40:52;;;;;;;13.07;2.15;;;11.10;99.90;;;;;;5077345;28;20020;-70
2023/04/13 10:43:31;;;;;;;5.75;1.15;;;11.30;99.90;;;;;;5075874;28;20032;-70
2023/04/13 10:46:08;;;;;;;4.53;1.42;;;11.80;99.90;;;;;;5077273;28;20025;-79
2023/04/13 10:48:34;;;;;;;7.97;1.30;;;11.90;99.90;;;;;;5077020;28;20426;-77
2023/04/13 10:51:00;;;;;;;16.98;1.98;;;11.90;99.90;;;;;;5077213;28;20049;-73
2023/04/13 10:53:29;;;;;;;14.33;1.80;;;12.10;99.90;;;;;;5076835;28;20293;-77
2023/04/13 10:55:56;;;;;;;9.55;1.92;;;11.80;99.90;;;;;;5077269;28;20408;-74
2023/04/13 10:58:22;;;;;;;6.78;1.63;;;11.70;99.90;;;;;;5075342;28;20048;-72
2023/04/13 11:00:50;;;;;;;11.35;1.98;;;11.80;99.90;;;;;;5076852;28;20300;-71
2023/04/13 11:03:17;;;;;;;8.55;1.67;;;11.80;99.90;;;;;;5077078;28;20035;-69
2023/04/13 11:05:45;;;;;;;7.55;2.17;;;11.50;99.90;;;;;;5076804;28;20419;-75
2023/04/13 11:08:18;;;;;;;15.95;1.60;;;11.30;99.90;;;;;;5076803;28;20029;-75
2023/04/13 11:10:51;;;;;;;9.23;1.98;;;11.10;99.90;;;;;;5075314;28;20112;-74
2023/04/13 11:13:17;;;;;;;14.05;1.92;;;11.00;99.90;;;;;;5075779;28;20082;-73
2023/04/13 11:15:42;;;;;;;9.53;1.80;;;10.90;99.90;;;;;;5076404;28;20377;-66
2023/04/13 11:18:09;;;;;;;8.57;1.47;;;10.90;99.90;;;;;;5076971;28;20039;-65
2023/04/13 11:20:36;;;;;;;5.38;1.90;;;11.00;99.90;;;;;;5076536;28;20017;-79
2023/04/13 11:23:06;;;;;;;10.75;1.80;;;11.00;99.90;;;;;;5076380;28;20036;-63
2023/04/13 11:25:33;;;;;;;8.57;1.52;;;11.00;99.90;;;;;;5076570;28;20021;-78
2023/04/13 11:28:01;;;;;;;6.63;1.50;;;11.20;99.90;;;;;;5075965;28;20324;-69
2023/04/13 11:30:27;;;;;;;9.90;2.00;;;11.30;99.90;;;;;;5075270;28;20031;-70
2023/04/13 11:32:55;;;;;;;16.92;2.22;;;11.50;99.90;;;;;;5075947;28;20419;-66
2023/04/13 11:35:22;;;;;;;5.18;1.48;;;11.50;99.90;;;;;;5076408;28;20390;-67
2023/04/13 11:37:54;;;;;;;10.82;1.35;;;11.60;99.90;;;;;;5073706;28;20438;-65
2023/04/13 11:40:27;;;;;;;10.20;1.55;;;11.60;99.90;;;;;;5077596;28;20081;-79
2023/04/13 11:42:57;;;;;;;9.23;1.80;;;11.60;99.90;;;;;;5062870;28;20025;-70
2023/04/13 11:45:28;;;;;;;13.43;2.40;;;11.60;99.90;;;;;;5086528;28;20028;-76
2023/04/13 11:47:56;;;;;;;7.65;1.67;;;11.60;99.90;;;;;;5074336;28;20064;-69
2023/04/13 11:50:22;;;;;;;15.25;1.95;;;11.80;99.90;;;;;;5070928;28;20308;-79
2023/04/13 11:52:55;;;;;;;7.43;1.85;;;12.20;99.90;;;;;;5056480;28;20305;-66
2023/04/13 11:55:21;;;;;;;11.32;2.17;;;12.40;99.90;;;;;;5059454;28;20115;-66
2023/04/13 11:57:48;;;;;;;14.65;1.40;;;12.40;99.90;;;;;;5057737;28;20297;-72
2023/04/13 12:00:20;;;;;;;4.97;1.38;;;12.30;99.90;;;;;;5059813;28;20020;-68
2023/04/13 12:02:47;;;;;;;6.25;1.60;;;12.20;99.90;;;;;;5075685;28;20016;-71
2023/04/13 12:05:33;;;;;;;6.55;1.70;;;12.20;99.90;;;;;;5074221;28;20119;-65
2023/04/13 12:08:01;;;;;;;7.03;1.80;;;12.10;99.90;;;;;;5071541;28;20043;-65
2023/04/13 12:10:29;;;;;;;6.03;1.50;;;11.90;99.90;;;;;;5074473;28;20029;-74
2023/04/13 12:12:59;;;;;;;9.63;1.90;;;11.80;99.90;;;;;;5075162;28;20024;-65
2023/04/13 12:15:30;;;;;;;8.45;1.75;;;11.80;99.90;;;;;;5073977;28;20453;-64
2023/04/13 12:17:57;;;;;;;10.10;1.85;;;12.10;99.90;;;;;;5063435;28;20040;-66
2023/04/13 12:20:38;;;;;;;8.88;1.70;;;12.30;99.90;;;;;;5073094;28;20020;-72
2023/04/13 12:23:24;;;;;;;10.18;1.52;;;12.30;99.90;;;;;;5072459;28;20411;-72
2023/04/13 12:25:57;;;;;;;7.43;1.40;;;12.40;99.90;;;;;;5074994;28;20028;-66
2023/04/13 12:28:34;;;;;;;16.30;1.98;;;12.50;99.90;;;;;;5073514;28;20159;-64
2023/04/13 12:31:03;;;;;;;;;;;12.20;99.90;;;;;;5074846;28;20056;-74
2023/04/13 12:33:29;;;;;;;7.93;1.67;;;12.30;99.90;;;;;;5074828;28;20214;-72
2023/04/13 12:35:55;;;;;;;5.70;1.47;;;12.60;99.90;;;;;;5075599;28;20035;-67
2023/04/13 12:38:22;;;;;;;10.13;1.90;;;12.80;99.90;;;;;;5073778;28;20031;-66
2023/04/13 12:40:47;;;;;;;13.35;1.77;;;12.60;99.90;;;;;;5075158;28;20103;-66
2023/04/13 12:43:13;;;;;;;10.77;1.37;;;12.50;99.90;;;;;;5074873;28;20419;-64
2023/04/13 12:45:39;;;;;;;12.00;1.97;;;12.30;99.90;;;;;;5074957;28;20024;-75
2023/04/13 12:48:05;;;;;;;11.50;1.67;;;12.40;99.90;;;;;;5075128;28;20029;-68
2023/04/13 12:50:31;;;;;;;13.43;1.67;;;12.90;99.90;;;;;;5074671;28;20081;-75
2023/04/13 12:52:56;;;;;;;9.07;2.10;;;13.10;99.90;;;;;;5073937;28;20032;-66
2023/04/13 12:55:22;;;;;;;9.47;1.77;;;13.00;99.90;;;;;;5074836;28;20356;-69
2023/04/13 12:57:48;;;;;;;5.83;1.33;;;12.70;99.90;;;;;;5075073;28;20024;-68
2023/04/13 13:00:16;;;;;;;13.57;1.93;;;12.60;99.90;;;;;;5074423;28;20347;-82